Hartford, Connecticut
Traffic Map
Current Weather Conditions
Hartford, Connecticut
Clear
Clear
78°
Feels Like: 79°
Wind Chill: 78° Ceiling: Unl
Heat Index: 79° Visibility: 10mi
Dew Point: 54° Wind: 6mph
Humidity: 43% Direction: 50° (NE)
Pressure: 29.97in Gusts: 0mph
Raw Report DataKHFD 251753Z 05005KT 10SM CLR 26/12 A2997 RMK AO2 SLP148 T02560122 10261 20183 58012
Traffic Incident Summary
Active as of:
Severity:
Category:
InformationThere was an issue retrieving the traffic information for this location. Please try a different location or try again shortly.
Advertisements
Track Severe Weather on mobile